Flight Track Log - Related Links

Times and Time Zones

All times are in EDT time to prevent confusion due to time zone crossing. See the AAL2007 flight status page for this flight to view local times or setup timezone preferences in your user account.

Time Position Orientation Groundspeed Altitude Reporting Facility
EDT Latitude Longitude Course Direction KTS MPH feet Rate Location/Type
Thu 06:00:08 PM 41.9000 -87.9333 194° South 203 234 3,100  Level Chicago TRACON
Thu 06:01:00 PM 41.6986 -88.1899 201° Southwest  Level Estimated
Thu 06:01:08 PM 41.8333 -87.9500 191° South 256 295 5,000  Level Chicago TRACON
Thu 06:02:00 PM 41.6041 -88.2838 197° South  Level Estimated
Thu 06:02:39 PM 41.7256 -87.9394 176° South 270 311 8,900  Level Chicago Center
Thu 06:03:00 PM 41.5096 -88.3774 194° South  Level Estimated
Thu 06:03:41 PM 41.6472 -87.9167 168° South 290 334 11,300  Level Chicago Center
Thu 06:04:00 PM 41.4149 -88.4707 207° Southwest  Level Estimated
Thu 06:04:43 PM 41.5692 -87.9414 193° South 297 342 13,700  Level Chicago Center
Thu 06:05:00 PM 41.3250 -88.5590 194° South  Level Estimated
Thu 06:06:43 PM 41.4081 -88.0631 210° Southwest 313 360 17,700  Level Kansas City Center
Thu 06:07:43 PM 41.3214 -88.1119 203° Southwest 324 373 19,600 1,645 Climbing Kansas City Center
Thu 06:08:47 PM 41.2303 -88.1617 202° Southwest 340 391 21,100 1,488 Climbing Kansas City Center
Thu 06:09:48 PM 41.1386 -88.2142 203° Southwest 350 403 22,700 1,536 Climbing Kansas City Center
Thu 06:10:52 PM 41.0439 -88.2675 203° Southwest 358 412 24,300 1,452 Climbing Kansas City Center
Thu 06:11:52 PM 40.9467 -88.3208 203° Southwest 366 421 25,700 1,210 Climbing Kansas City Center
Thu 06:12:56 PM 40.8486 -88.3756 203° Southwest 373 429 26,800 816 Climbing Kansas City Center
Thu 06:13:57 PM 40.7228 -88.4436 202° Southwest 390 449 27,400 639 Climbing Kansas City Center
Thu 06:14:58 PM 40.6106 -88.5053 203° Southwest 418 481 28,100 919 Climbing Kansas City Center
Thu 06:16:01 PM 40.4964 -88.5678 203° Southwest 436 502 29,300 1,113 Climbing Kansas City Center
Thu 06:17:02 PM 40.3819 -88.6300 202° Southwest 442 509 30,400 1,000 Climbing Kansas City Center
Thu 06:18:07 PM 40.2781 -88.7150 212° Southwest 444 511 31,400 1,000 Climbing Kansas City Center
Thu 06:19:08 PM 40.1906 -88.8264 224° Southwest 439 505 32,500 1,041 Climbing Kansas City Center
Thu 06:20:08 PM 40.1044 -88.9367 224° Southwest 435 501 33,500 698 Climbing Kansas City Center
Thu 06:21:17 PM 40.0008 -89.0686 224° Southwest 434 499 34,000 240 Climbing Chicago Center
Thu 06:22:13 PM 39.9117 -89.1781 223° Southwest 437 503 34,000  Level Kansas City Center
Thu 06:23:17 PM 39.8236 -89.2914 225° Southwest 441 507 34,000  Level Kansas City Center
Thu 06:24:18 PM 39.7319 -89.3953 221° Southwest 438 504 34,000  Level Kansas City Center
Thu 06:25:19 PM 39.6464 -89.4881 220° Southwest 434 499 34,000  Level Kansas City Center
Thu 06:26:23 PM 39.5381 -89.6047 220° Southwest 426 490 34,000  Level Kansas City Center
Thu 06:27:23 PM 39.4467 -89.7036 220° Southwest 427 491 34,000  Level Kansas City Center
Thu 06:28:27 PM 39.3550 -89.8017 220° Southwest 428 493 34,000  Level Kansas City Center
Thu 06:29:28 PM 39.2625 -89.9003 220° Southwest 430 495 34,000  Level Kansas City Center
Thu 06:30:29 PM 39.1697 -89.9978 219° Southwest 432 497 34,000  Level Kansas City Center
Thu 06:31:33 PM 39.0592 -90.1153 220° Southwest 431 496 34,000  Level Kansas City Center
Thu 06:32:33 PM 38.9672 -90.2136 220° Southwest 431 496 34,000  Level Kansas City Center
Thu 06:33:35 PM 38.8831 -90.3025 219° Southwest 430 495 34,000  Level Kansas City Center
Thu 06:34:38 PM 38.7753 -90.4225 221° Southwest 428 493 34,000  Level Kansas City Center
Thu 06:35:40 PM 38.6764 -90.5158 216° Southwest 434 499 34,000  Level Kansas City Center
Thu 06:36:44 PM 38.5806 -90.6128 218° Southwest 437 503 34,000  Level Kansas City Center
Thu 06:37:44 PM 38.4900 -90.7108 220° Southwest 437 503 34,000  Level Kansas City Center
Thu 06:38:45 PM 38.4075 -90.8300 229° Southwest 441 507 34,000  Level Kansas City Center
Thu 06:39:49 PM 38.3300 -90.9492 230° Southwest 438 504 34,000  Level Kansas City Center
Thu 06:40:50 PM 38.2553 -91.0708 232° Southwest 437 503 34,000  Level Kansas City Center
Thu 06:41:51 PM 38.1683 -91.2164 233° Southwest 435 501 34,000  Level Kansas City Center
Thu 06:42:55 PM 38.0931 -91.3442 233° Southwest 438 504 34,000  Level Kansas City Center
Thu 06:43:55 PM 38.0200 -91.4675 233° Southwest 437 503 34,000  Level Kansas City Center
Thu 06:45:00 PM 37.9467 -91.5911 233° Southwest 437 503 34,000  Level Kansas City Center
Thu 06:46:00 PM 37.8725 -91.7136 233° Southwest 437 503 34,000  Level Kansas City Center
Thu 06:47:01 PM 37.7917 -91.8297 229° Southwest 437 503 34,000  Level Kansas City Center
Thu 06:48:05 PM 37.7067 -91.9408 226° Southwest 436 502 34,000  Level Kansas City Center
Thu 06:49:05 PM 37.5867 -92.0489 216° Southwest 437 503 34,000  Level Kansas City Center
Thu 06:50:09 PM 37.4872 -92.1411 216° Southwest 439 505 34,000  Level Kansas City Center
Thu 06:51:09 PM 37.3881 -92.2331 216° Southwest 439 505 34,000  Level Kansas City Center
Thu 06:52:13 PM 37.2883 -92.3231 216° Southwest 439 505 34,000  Level Kansas City Center
Thu 06:53:13 PM 37.1889 -92.4133 216° Southwest 440 506 34,000  Level Kansas City Center
Thu 06:54:17 PM 37.0875 -92.5025 215° Southwest 441 507 34,000  Level Kansas City Center
Thu 06:55:17 PM 36.9872 -92.5925 216° Southwest 443 510 34,000  Level Kansas City Center
Thu 06:56:21 PM 36.8872 -92.6806 215° Southwest 440 506 34,000  Level Kansas City Center
Thu 06:57:24 PM 36.7675 -92.7878 216° Southwest 441 507 34,000  Level Kansas City Center
Thu 06:58:25 PM 36.6653 -92.8767 215° Southwest 444 511 34,000  Level Kansas City Center
Thu 06:59:29 PM 36.5711 -92.9575 215° Southwest 444 511 34,000  Level Kansas City Center
Thu 07:00:28 PM 36.4667 -93.0367 211° Southwest 443 510 34,000  Level Kansas City Center
Thu 07:01:32 PM 36.3386 -93.1269 210° Southwest 443 510 34,000  Level Kansas City Center
Thu 07:02:32 PM 36.2314 -93.2036 210° Southwest 445 512 34,000  Level Kansas City Center
Thu 07:03:34 PM 36.1267 -93.2775 210° Southwest 439 505 34,000  Level Kansas City Center
Thu 07:04:37 PM 36.0194 -93.3517 209° Southwest 441 507 34,000  Level Kansas City Center
Thu 07:05:39 PM 35.9153 -93.4281 211° Southwest 440 506 34,000  Level Kansas City Center
Thu 07:06:50 PM 35.7886 -93.5406 216° Southwest 449 517 34,000  Level Memphis Center
Thu 07:07:50 PM 35.6775 -93.6411 216° Southwest 449 517 34,000  Level Memphis Center
Thu 07:08:50 PM 35.5772 -93.7317 216° Southwest 449 517 34,000  Level Memphis Center
Thu 07:09:50 PM 35.4767 -93.8192 215° Southwest 449 517 34,000  Level Memphis Center
Thu 07:10:50 PM 35.3742 -93.9092 216° Southwest 454 522 34,000  Level Memphis Center
Thu 07:11:50 PM 35.2714 -93.9964 215° Southwest 454 522 34,000  Level Memphis Center
Thu 07:12:50 PM 35.1731 -94.0811 215° Southwest 449 517 34,000  Level Memphis Center
Thu 07:13:50 PM 35.0722 -94.1706 216° Southwest 449 517 34,000  Level Memphis Center
Thu 07:16:03 PM 34.8622 -94.3567 216° Southwest 451 519 34,000  Level Fort Worth Center
Thu 07:17:02 PM 34.7619 -94.4361 213° Southwest 445 512 34,000  Level Fort Worth Center
Thu 07:18:02 PM 34.6619 -94.5281 217° Southwest 445 512 34,000  Level Fort Worth Center
Thu 07:19:03 PM 34.5594 -94.6147 215° Southwest 450 518 34,000  Level Fort Worth Center
Thu 07:20:02 PM 34.4592 -94.7008 215° Southwest 450 518 34,000  Level Fort Worth Center
Thu 07:21:02 PM 34.3608 -94.7869 216° Southwest 450 518 34,000  Level Fort Worth Center
Thu 07:22:02 PM 34.2561 -94.8758 215° Southwest 450 518 34,000  Level Fort Worth Center
Thu 07:23:03 PM 34.1514 -94.9592 213° Southwest 450 518 34,000  Level Fort Worth Center
Thu 07:24:03 PM 34.0528 -95.0419 215° Southwest 450 518 34,000  Level Fort Worth Center
Thu 07:25:03 PM 33.9503 -95.1300 215° Southwest 450 518 34,000  Level Fort Worth Center
Thu 07:26:02 PM 33.8475 -95.2153 215° Southwest 455 524 34,000  Level Fort Worth Center
Thu 07:27:02 PM 33.7444 -95.3003 214° Southwest 455 524 34,000  Level Fort Worth Center
Thu 07:28:03 PM 33.6417 -95.3850 214° Southwest 455 524 34,000  Level Fort Worth Center
Thu 07:29:03 PM 33.5406 -95.4694 215° Southwest 455 524 34,000  Level Fort Worth Center
Thu 07:30:02 PM 33.4333 -95.5542 213° Southwest 461 531 34,000  Level Fort Worth Center
Thu 07:31:03 PM 33.3344 -95.6358 215° Southwest 455 524 34,000  Level Fort Worth Center
Thu 07:32:03 PM 33.2311 -95.7222 215° Southwest 455 524 34,000  Level Fort Worth Center
Thu 07:33:03 PM 33.1278 -95.8036 213° Southwest 455 524 34,000  Level Fort Worth Center
Thu 07:34:03 PM 33.0244 -95.8897 215° Southwest 460 529 34,000  Level Fort Worth Center
Thu 07:35:02 PM 32.9211 -95.9731 214° Southwest 460 529 34,000  Level Fort Worth Center
Thu 07:36:03 PM 32.8178 -96.0564 214° Southwest 460 529 34,000  Level Fort Worth Center
Thu 07:37:03 PM 32.7122 -96.1444 215° Southwest 460 529 34,000  Level Fort Worth Center
Thu 07:38:03 PM 32.6086 -96.2272 214° Southwest 460 529 34,000  Level Fort Worth Center
Thu 07:39:03 PM 32.5050 -96.3097 214° Southwest 460 529 34,000  Level Fort Worth Center
Thu 07:40:02 PM 32.3931 -96.3997 214° Southwest 460 529 34,000  Level Fort Worth Center
Thu 07:41:03 PM 32.2892 -96.4844 215° Southwest 460 529 34,000  Level Fort Worth Center
Thu 07:42:02 PM 32.1856 -96.5667 214° Southwest 460 529 34,000 -150 Level Fort Worth Center
Thu 07:43:03 PM 32.0817 -96.6433 212° Southwest 460 529 33,700 -650 Descending Fort Worth Center
Thu 07:44:02 PM 31.9733 -96.7106 208° Southwest 453 521 32,700 -1,109 Descending Fort Worth Center
Thu 07:45:02 PM 31.8778 -96.7747 210° Southwest 443 510 31,500 -1,600 Descending Fort Worth Center
Thu 07:45:47 PM 31.7828 -96.8358 209° Southwest 454 522 29,900 -1,963 Descending Houston Center
Thu 07:46:49 PM 31.6686 -96.9108 209° Southwest 462 532 28,000 -1,984 Descending Houston Center
Thu 07:47:51 PM 31.5519 -96.9869 209° Southwest 471 542 25,800 -2,177 Descending Houston Center
Thu 07:48:53 PM 31.4344 -97.0631 209° Southwest 477 549 23,500 -2,371 Descending Houston Center
Thu 07:49:55 PM 31.3219 -97.1358 209° Southwest 464 534 20,900 -2,419 Descending Houston Center
Thu 07:50:57 PM 31.2144 -97.2022 208° Southwest 440 506 18,500 -2,177 Descending Houston Center
Thu 07:51:59 PM 31.0983 -97.2008 179° South 417 480 16,400 -1,935 Descending Houston Center
Thu 07:53:01 PM 30.9961 -97.2442 200° South 399 459 14,500 -1,597 Descending Houston Center
Thu 07:54:03 PM 30.8889 -97.3136 209° Southwest 399 459 13,100 -871 Descending Houston Center
Thu 07:55:05 PM 30.7967 -97.3742 209° Southwest 381 438 12,700 -677 Descending Houston Center
Thu 07:56:07 PM 30.7194 -97.4292 211° Southwest 332 382 11,700 -1,210 Descending Houston Center
Thu 07:57:09 PM 30.6372 -97.4894 212° Southwest 301 346 10,200 -1,306 Descending Houston Center
Thu 07:58:11 PM 30.5756 -97.5506 220° Southwest 288 331 9,000 -1,210 Descending Houston Center
Thu 07:59:13 PM 30.5169 -97.6122 222° Southwest 284 327 7,700 -1,597 Descending Houston Center
Thu 08:00:15 PM 30.4481 -97.6592 210° Southwest 284 327 5,700 -1,742 Descending Houston Center
Thu 08:01:17 PM 30.3803 -97.6842 198° South 259 298 4,100 -1,548 Descending Houston Center

Login

Don't have an account? Register now (free) for customized features, flight alerts, and more!